Time;durP1;ratioP1;P1;durP2;ratioP2;P2;SDS_P1;SDS_P2;PMS_P1;PMS_P2;Temp;Humidity;BMP_temperature;BMP_pressure;BME280_temperature;BME280_humidity;BME280_pressure;Samples;Min_cycle;Max_cycle;Signal;HPM_P1;HPM_P2
2022/04/18 00:00:22;;;;;;;71.41;66.27;;;;;;;17.52;45.26;100848.19;;;;-52
2022/04/18 00:03:22;;;;;;;74.31;69.01;;;;;;;17.52;45.31;100844.55;;;;-52
2022/04/18 00:06:22;;;;;;;98.70;91.52;;;;;;;17.51;45.27;100843.37;;;;-52
2022/04/18 00:09:22;;;;;;;107.36;99.37;;;;;;;17.52;45.28;100843.33;;;;-60
2022/04/18 00:12:22;;;;;;;115.41;106.66;;;;;;;17.51;45.23;100836.64;;;;-58
2022/04/18 00:15:23;;;;;;;99.23;91.94;;;;;;;17.51;45.24;100835.67;;;;-58
2022/04/18 00:18:22;;;;;;;112.11;103.79;;;;;;;17.50;45.24;100836.88;;;;-60
2022/04/18 00:21:23;;;;;;;35.70;33.36;;;;;;;17.50;45.32;100833.81;;;;-60
2022/04/18 00:24:23;;;;;;;58.38;54.30;;;;;;;17.50;45.28;100831.62;;;;-59
2022/04/18 00:27:22;;;;;;;1.59;1.49;;;;;;;17.48;45.24;100826.23;;;;-52
2022/04/18 00:30:22;;;;;;;28.00;26.23;;;;;;;17.48;45.27;100827.04;;;;-52
2022/04/18 00:33:22;;;;;;;48.24;44.85;;;;;;;17.48;45.25;100826.47;;;;-53
2022/04/18 00:36:22;;;;;;;14.46;13.57;;;;;;;17.48;45.22;100819.02;;;;-53
2022/04/18 00:39:52;;;;;;;9.01;8.45;;;;;;;17.47;45.22;100821.69;;;;-52
2022/04/18 00:42:53;;;;;;;5.13;4.83;;;;;;;17.46;45.18;100817.52;;;;-52
2022/04/18 00:45:52;;;;;;;13.30;12.50;;;;;;;17.46;45.30;100820.59;;;;-54
2022/04/18 00:48:52;;;;;;;21.74;20.41;;;;;;;17.45;45.26;100815.48;;;;-52
2022/04/18 00:51:52;;;;;;;38.31;35.81;;;;;;;17.45;45.16;100817.03;;;;-52
2022/04/18 00:54:54;;;;;;;1.53;1.43;;;;;;;17.44;45.29;100810.43;;;;-52
2022/04/18 00:58:22;;;;;;;3.19;2.99;;;;;;;17.44;45.25;100809.21;;;;-52
2022/04/18 01:01:23;;;;;;;25.49;23.75;;;;;;;17.43;45.27;100807.88;;;;-59
2022/04/18 01:03:53;;;;;;;2.52;2.09;;;;;;;17.43;45.22;100805.45;;;;-60
2022/04/18 01:07:22;;;;;;;21.53;20.16;;;;;;;17.42;45.29;100801.48;;;;-59
2022/04/18 01:10:22;;;;;;;22.67;21.20;;;;;;;17.43;45.23;100802.05;;;;-58
2022/04/18 01:48:27;;;;;;;5.21;4.91;;;;;;;17.44;45.11;100774.21;;;;-59
2022/04/18 01:51:56;;;;;;;3.69;3.47;;;;;;;17.43;45.06;100772.19;;;;-59
2022/04/18 01:54:57;;;;;;;2.75;2.55;;;;;;;17.43;45.17;100773.08;;;;-60
2022/04/18 01:57:27;;;;;;;2.37;2.17;;;;;;;17.43;45.07;100776.28;;;;-60
2022/04/18 02:00:56;;;;;;;3.31;3.11;;;;;;;17.42;45.07;100777.09;;;;-60
2022/04/18 02:03:57;;;;;;;4.45;4.12;;;;;;;17.40;45.13;100768.46;;;;-58
2022/04/18 02:06:27;;;;;;;6.79;6.37;;;;;;;17.40;45.16;100766.67;;;;-60
2022/04/18 02:09:26;;;;;;;3.46;3.26;;;;;;;17.39;45.16;100763.48;;;;-60
2022/04/18 02:12:58;;;;;;;3.31;3.13;;;;;;;17.37;45.18;100760.64;;;;-55
2022/04/18 02:15:27;;;;;;;6.75;6.35;;;;;;;17.37;45.15;100755.30;;;;-54
2022/04/18 02:18:57;;;;;;;12.21;11.42;;;;;;;17.36;45.21;100753.07;;;;-54
2022/04/18 02:21:56;;;;;;;40.61;37.67;;;;;;;17.36;45.22;100752.42;;;;-54
2022/04/18 02:24:27;;;;;;;1.69;1.48;;;;;;;17.35;45.19;100753.62;;;;-59
2022/04/18 02:27:45;;;;;;;12.56;11.68;;;;;;;17.34;45.27;100744.44;;;;-59
2022/04/18 02:30:27;;;;;;;14.32;13.31;;;;;;;17.34;45.20;100745.17;;;;-60
2022/04/18 02:33:27;;;;;;;7.96;7.41;;;;;;;17.34;45.12;100743.39;;;;-60
2022/04/18 02:36:27;;;;;;;1.58;1.48;;;;;;;17.33;45.17;100742.49;;;;-59
2022/04/18 02:39:27;;;;;;;1.60;1.50;;;;;;;17.33;45.19;100743.59;;;;-60
2022/04/18 02:42:27;;;;;;;35.57;33.05;;;;;;;17.32;45.14;100746.83;;;;-60
2022/04/18 02:45:29;;;;;;;1.63;1.53;;;;;;;17.32;45.16;100744.88;;;;-59
2022/04/18 02:48:27;;;;;;;3.31;3.09;;;;;;;17.31;45.12;100741.88;;;;-59
2022/04/18 02:51:55;;;;;;;9.79;9.13;;;;;;;17.32;45.17;100738.73;;;;-59
2022/04/18 02:54:27;;;;;;;1.50;1.40;;;;;;;17.30;45.17;100732.70;;;;-59
2022/04/18 02:57:57;;;;;;;1.61;1.51;;;;;;;17.30;45.19;100730.75;;;;-59
2022/04/18 03:00:56;;;;;;;1.56;1.46;;;;;;;17.29;45.16;100724.91;;;;-59
2022/04/18 03:03:27;;;;;;;2.47;2.30;;;;;;;17.30;45.20;100720.87;;;;-59
2022/04/18 03:06:57;;;;;;;1.53;1.43;;;;;;;17.28;45.13;100721.08;;;;-58
2022/04/18 03:09:27;;;;;;;5.49;5.13;;;;;;;17.29;45.21;100718.35;;;;-58
2022/04/18 03:12:27;;;;;;;1.71;1.61;;;;;;;17.28;45.20;100716.94;;;;-59
2022/04/18 03:15:57;;;;;;;6.50;5.88;;;;;;;17.28;45.10;100715.81;;;;-58
2022/04/18 03:18:27;;;;;;;1.51;1.41;;;;;;;17.28;45.18;100707.46;;;;-59
2022/04/18 03:21:27;;;;;;;1.51;1.41;;;;;;;17.27;45.20;100705.68;;;;-59
2022/04/18 03:24:27;;;;;;;2.09;1.48;;;;;;;17.26;45.18;100704.67;;;;-60
2022/04/18 03:27:27;;;;;;;1.66;1.56;;;;;;;17.26;45.14;100704.47;;;;-59
2022/04/18 03:30:27;;;;;;;1.46;1.36;;;;;;;17.26;45.05;100704.34;;;;-59
2022/04/18 03:33:27;;;;;;;1.60;1.50;;;;;;;17.25;45.14;100702.16;;;;-60
2022/04/18 03:42:31;;;;;;;1.54;1.44;;;;;;;17.25;45.10;100700.70;;;;-59
2022/04/18 03:45:27;;;;;;;1.50;1.40;;;;;;;17.25;45.09;100699.23;;;;-59
2022/04/18 03:48:57;;;;;;;2.72;2.53;;;;;;;17.24;45.16;100698.27;;;;-59
2022/04/18 03:51:26;;;;;;;1.67;1.57;;;;;;;17.23;45.09;100694.02;;;;-60
2022/04/18 03:54:27;;;;;;;1.59;1.49;;;;;;;17.23;45.13;100697.58;;;;-59
2022/04/18 03:57:35;;;;;;;1.50;1.40;;;;;;;17.23;45.09;100702.44;;;;-59
2022/04/18 04:00:27;;;;;;;1.70;1.60;;;;;;;17.23;45.16;100701.95;;;;-59
2022/04/18 04:03:57;;;;;;;1.82;1.72;;;;;;;17.23;45.13;100699.45;;;;-59
2022/04/18 04:06:27;;;;;;;1.70;1.60;;;;;;;17.23;45.09;100698.95;;;;-59
2022/04/18 04:09:26;;;;;;;1.61;1.47;;;;;;;17.23;45.15;100700.01;;;;-59
2022/04/18 04:12:57;;;;;;;1.72;1.62;;;;;;;17.22;45.13;100693.25;;;;-60
2022/04/18 04:15:36;;;;;;;1.60;1.50;;;;;;;17.22;45.17;100689.61;;;;-59
2022/04/18 04:18:27;;;;;;;1.65;1.53;;;;;;;17.22;45.13;100692.88;;;;-59
2022/04/18 04:21:27;;;;;;;1.60;1.50;;;;;;;17.21;45.09;100691.55;;;;-59
2022/04/18 04:24:27;;;;;;;1.61;1.51;;;;;;;17.21;45.11;100688.55;;;;-59
2022/04/18 04:27:30;;;;;;;1.59;1.49;;;;;;;17.21;45.14;100692.28;;;;-54
2022/04/18 04:30:27;;;;;;;1.73;1.63;;;;;;;17.21;45.10;100688.47;;;;-54
2022/04/18 04:33:57;;;;;;;2.85;2.62;;;;;;;17.20;45.07;100685.06;;;;-54
2022/04/18 04:36:27;;;;;;;6.46;6.03;;;;;;;17.20;45.18;100682.31;;;;-54
2022/04/18 04:39:27;;;;;;;1.70;1.59;;;;;;;17.20;45.13;100682.44;;;;-54
2022/04/18 04:42:27;;;;;;;8.30;7.71;;;;;;;17.20;45.10;100679.52;;;;-59
2022/04/18 04:45:27;;;;;;;1.63;1.53;;;;;;;17.20;45.17;100676.86;;;;-59
2022/04/18 04:48:27;;;;;;;1.60;1.50;;;;;;;17.21;45.14;100677.70;;;;-59
2022/04/18 04:51:27;;;;;;;1.60;1.50;;;;;;;17.21;45.09;100677.54;;;;-59
2022/04/18 04:54:27;;;;;;;1.50;1.40;;;;;;;17.23;45.13;100681.14;;;;-54
2022/04/18 04:57:27;;;;;;;1.61;1.51;;;;;;;17.24;45.12;100683.25;;;;-54
2022/04/18 05:00:27;;;;;;;1.50;1.40;;;;;;;17.27;45.22;100685.02;;;;-54
2022/04/18 05:03:27;;;;;;;1.60;1.50;;;;;;;17.30;45.15;100683.12;;;;-54
2022/04/18 05:06:27;;;;;;;1.54;1.44;;;;;;;17.32;45.08;100678.78;;;;-54
2022/04/18 05:09:27;;;;;;;1.59;1.49;;;;;;;17.35;45.15;100683.97;;;;-54
2022/04/18 05:12:28;;;;;;;1.60;1.50;;;;;;;17.40;45.21;100681.61;;;;-53
2022/04/18 05:15:27;;;;;;;1.55;1.45;;;;;;;17.44;45.22;100684.93;;;;-52
2022/04/18 05:18:27;;;;;;;1.55;1.45;;;;;;;17.47;45.29;100687.32;;;;-53
2022/04/18 05:21:27;;;;;;;1.54;1.44;;;;;;;17.50;45.27;100686.98;;;;-52
2022/04/18 05:24:27;;;;;;;1.70;1.60;;;;;;;17.54;45.34;100689.01;;;;-57
2022/04/18 05:27:27;;;;;;;3.66;1.98;;;;;;;17.33;40.62;100685.63;;;;-58
2022/04/18 05:30:27;;;;;;;2.93;2.39;;;;;;;17.05;39.48;100683.78;;;;-56
2022/04/18 05:33:27;;;;;;;3.15;2.72;;;;;;;16.86;38.67;100686.31;;;;-53
2022/04/18 05:36:27;;;;;;;5.47;5.03;;;;;;;16.76;38.08;100689.62;;;;-59
2022/04/18 05:39:27;;;;;;;4.06;3.24;;;;;;;16.56;37.13;100687.12;;;;-56
2022/04/18 05:42:27;;;;;;;4.09;3.38;;;;;;;16.40;36.95;100688.20;;;;-55
2022/04/18 05:45:27;;;;;;;4.60;3.51;;;;;;;16.29;36.34;100683.56;;;;-55
2022/04/18 05:48:57;;;;;;;5.67;3.41;;;;;;;16.21;36.55;100688.14;;;;-55
2022/04/18 05:51:57;;;;;;;13.32;12.30;;;;;;;16.15;36.41;100682.22;;;;-52
2022/04/18 05:54:57;;;;;;;3.93;3.33;;;;;;;16.11;36.14;100687.53;;;;-50
2022/04/18 05:57:57;;;;;;;4.79;4.31;;;;;;;16.03;36.01;100691.30;;;;-54
2022/04/18 06:00:57;;;;;;;4.66;3.38;;;;;;;16.00;36.00;100682.75;;;;-47
2022/04/18 06:03:27;;;;;;;4.21;3.25;;;;;;;15.95;35.81;100684.31;;;;-49
2022/04/18 06:06:27;;;;;;;6.99;6.42;;;;;;;15.92;35.54;100682.80;;;;-51
2022/04/18 06:09:27;;;;;;;3.49;3.19;;;;;;;15.90;35.63;100684.85;;;;-50
2022/04/18 06:12:27;;;;;;;4.37;3.25;;;;;;;15.91;36.16;100685.18;;;;-50
2022/04/18 06:15:27;;;;;;;16.83;15.67;;;;;;;16.16;37.07;100687.88;;;;-58
2022/04/18 06:18:27;;;;;;;4.04;3.02;;;;;;;16.31;37.17;100683.97;;;;-59
2022/04/18 06:21:27;;;;;;;5.29;2.89;;;;;;;16.46;37.60;100690.69;;;;-59
2022/04/18 06:24:27;;;;;;;4.13;3.43;;;;;;;16.57;38.03;100695.53;;;;-58
2022/04/18 06:27:26;;;;;;;5.09;4.66;;;;;;;16.65;38.40;100692.08;;;;-59
2022/04/18 06:30:27;;;;;;;7.49;6.47;;;;;;;16.73;38.64;100698.08;;;;-59
2022/04/18 06:33:28;;;;;;;13.95;12.99;;;;;;;16.80;38.80;100699.34;;;;-59
2022/04/18 06:36:27;;;;;;;3.81;2.41;;;;;;;16.85;39.13;100699.83;;;;-59
2022/04/18 06:39:27;;;;;;;21.81;20.31;;;;;;;16.91;39.42;100702.42;;;;-59
2022/04/18 06:42:27;;;;;;;3.69;2.23;;;;;;;16.95;39.55;100702.03;;;;-59
2022/04/18 06:45:28;;;;;;;3.64;2.53;;;;;;;17.00;39.92;100697.61;;;;-59
2022/04/18 06:48:27;;;;;;;2.64;2.30;;;;;;;17.05;40.03;100706.12;;;;-59
2022/04/18 06:51:27;;;;;;;3.78;2.39;;;;;;;17.08;40.25;100703.02;;;;-58
2022/04/18 06:54:27;;;;;;;6.52;5.30;;;;;;;17.11;40.28;100702.12;;;;-59
2022/04/18 06:57:27;;;;;;;5.63;4.87;;;;;;;17.15;40.44;100707.38;;;;-58
2022/04/18 07:00:28;;;;;;;6.18;5.57;;;;;;;17.16;40.52;100704.75;;;;-59
2022/04/18 07:03:27;;;;;;;2.77;2.39;;;;;;;17.18;40.59;100707.19;;;;-59
2022/04/18 07:06:27;;;;;;;11.03;10.23;;;;;;;17.20;40.73;100707.22;;;;-59
2022/04/18 07:09:27;;;;;;;2.74;2.30;;;;;;;17.22;40.90;100706.70;;;;-59
2022/04/18 07:12:27;;;;;;;2.97;2.56;;;;;;;17.24;40.91;100704.23;;;;-60
2022/04/18 07:15:27;;;;;;;3.46;2.27;;;;;;;17.26;40.94;100702.73;;;;-60
2022/04/18 07:18:27;;;;;;;5.04;4.58;;;;;;;17.27;41.00;100704.38;;;;-59
2022/04/18 07:21:27;;;;;;;2.87;2.26;;;;;;;17.27;41.01;100699.28;;;;-59
2022/04/18 07:24:27;;;;;;;2.63;2.34;;;;;;;17.28;41.03;100699.94;;;;-58
2022/04/18 07:27:27;;;;;;;15.50;14.38;;;;;;;17.30;41.21;100701.91;;;;-59
2022/04/18 07:30:30;;;;;;;7.04;6.49;;;;;;;17.30;41.26;100701.43;;;;-60
2022/04/18 07:33:27;;;;;;;4.69;4.29;;;;;;;17.31;41.32;100695.80;;;;-59
2022/04/18 07:36:27;;;;;;;16.28;14.97;;;;;;;17.32;41.39;100699.77;;;;-53
2022/04/18 07:39:27;;;;;;;2.30;2.10;;;;;;;17.32;41.49;100697.98;;;;-53
2022/04/18 07:42:27;;;;;;;2.41;2.13;;;;;;;17.32;41.46;100694.34;;;;-52
2022/04/18 07:45:27;;;;;;;2.17;1.97;;;;;;;17.33;41.52;100700.34;;;;-53
2022/04/18 07:48:26;;;;;;;2.59;2.09;;;;;;;17.33;41.56;100700.29;;;;-53
2022/04/18 07:51:39;;;;;;;2.18;1.98;;;;;;;17.34;41.60;100705.72;;;;-53
2022/04/18 07:54:27;;;;;;;2.84;1.95;;;;;;;17.34;41.67;100702.97;;;;-51
2022/04/18 07:57:27;;;;;;;2.93;2.18;;;;;;;17.34;41.74;100703.05;;;;-51
2022/04/18 08:00:27;;;;;;;2.84;1.91;;;;;;;17.35;41.68;100705.11;;;;-51
2022/04/18 08:03:27;;;;;;;4.47;4.13;;;;;;;17.35;41.67;100708.92;;;;-51
2022/04/18 08:06:27;;;;;;;7.46;6.89;;;;;;;17.35;41.75;100710.53;;;;-51
2022/04/18 08:09:26;;;;;;;2.48;2.06;;;;;;;17.36;41.66;100707.95;;;;-51
2022/04/18 08:12:46;;;;;;;2.33;2.13;;;;;;;17.36;41.87;100709.65;;;;-51
2022/04/18 08:15:27;;;;;;;2.23;1.97;;;;;;;17.36;41.78;100708.52;;;;-51
2022/04/18 08:18:27;;;;;;;2.17;1.97;;;;;;;17.36;41.84;100702.68;;;;-51
2022/04/18 08:21:27;;;;;;;4.27;2.11;;;;;;;17.36;42.16;100706.33;;;;-55
2022/04/18 08:24:27;;;;;;;2.64;1.93;;;;;;;17.39;42.39;100705.91;;;;-57
2022/04/18 08:27:28;;;;;;;2.29;2.07;;;;;;;17.42;42.48;100705.47;;;;-57
2022/04/18 08:30:27;;;;;;;4.03;3.73;;;;;;;17.43;42.72;100704.53;;;;-54
2022/04/18 08:33:29;;;;;;;2.20;2.00;;;;;;;17.44;42.67;100704.45;;;;-61
2022/04/18 08:36:27;;;;;;;9.16;8.45;;;;;;;17.46;42.82;100705.63;;;;-59
2022/04/18 08:39:27;;;;;;;2.40;2.01;;;;;;;17.47;42.87;100708.66;;;;-61
2022/04/18 08:46:27;;;;;;;3.29;2.02;;;;;;;17.52;42.83;100695.29;;;;-52
2022/04/18 08:55:27;;;;;;;2.20;2.00;;;;;;;17.57;42.95;100697.96;;;;-54
2022/04/18 08:58:57;;;;;;;9.24;8.61;;;;;;;17.58;43.01;100691.34;;;;-51
2022/04/18 09:01:57;;;;;;;2.49;2.07;;;;;;;17.59;42.96;100689.41;;;;-51
2022/04/18 09:04:57;;;;;;;2.21;2.00;;;;;;;17.61;43.03;100690.41;;;;-50
2022/04/18 09:07:57;;;;;;;2.80;2.07;;;;;;;17.62;43.25;100687.53;;;;-56
2022/04/18 09:10:49;;;;;;;3.07;1.90;;;;;;;17.63;43.15;100690.94;;;;-56
2022/04/18 09:13:27;;;;;;;2.18;1.99;;;;;;;17.63;43.08;100688.27;;;;-50
2022/04/18 09:16:27;;;;;;;2.93;2.69;;;;;;;17.63;42.99;100681.70;;;;-55
2022/04/18 09:19:27;;;;;;;8.19;6.86;;;;;;;17.63;43.28;100680.00;;;;-50
2022/04/18 09:22:27;;;;;;;3.27;2.01;;;;;;;17.64;43.30;100675.81;;;;-58
2022/04/18 09:25:27;;;;;;;2.09;1.89;;;;;;;17.65;43.25;100677.27;;;;-57
2022/04/18 09:28:27;;;;;;;2.63;2.27;;;;;;;17.66;43.16;100677.87;;;;-53
2022/04/18 09:31:27;;;;;;;8.54;7.86;;;;;;;17.67;43.29;100675.13;;;;-49
2022/04/18 09:34:27;;;;;;;2.19;1.99;;;;;;;17.68;43.23;100677.19;;;;-51
2022/04/18 09:37:27;;;;;;;2.87;2.64;;;;;;;17.69;43.25;100673.70;;;;-53
2022/04/18 09:45:57;;;;;;;2.32;1.94;;;;;;;17.72;43.29;100669.12;;;;-54
2022/04/18 09:48:27;;;;;;;32.13;29.65;;;;;;;17.74;43.32;100665.91;;;;-52
2022/04/18 09:51:27;;;;;;;1.91;1.80;;;;;;;17.73;43.31;100659.50;;;;-56
2022/04/18 09:54:27;;;;;;;1.99;1.79;;;;;;;17.75;43.43;100652.97;;;;-59
2022/04/18 09:57:27;;;;;;;2.37;1.90;;;;;;;17.76;43.46;100648.92;;;;-58
2022/04/18 10:00:27;;;;;;;4.61;2.03;;;;;;;17.77;43.38;100644.91;;;;-50
2022/04/18 10:03:57;;;;;;;4.21;2.08;;;;;;;17.80;43.42;100644.86;;;;-50
2022/04/18 10:06:57;;;;;;;6.88;6.33;;;;;;;17.80;43.45;100645.02;;;;-47
2022/04/18 10:09:27;;;;;;;10.06;9.24;;;;;;;17.81;43.46;100644.56;;;;-46
2022/04/18 10:12:27;;;;;;;20.29;18.63;;;;;;;17.81;43.38;100640.91;;;;-55
2022/04/18 10:15:27;;;;;;;5.93;5.45;;;;;;;17.81;43.32;100640.11;;;;-54
2022/04/18 10:21:28;;;;;;;2.29;2.00;;;;;;;17.81;43.26;100639.78;;;;-50
2022/04/18 10:24:27;;;;;;;5.75;2.10;;;;;;;17.83;43.32;100629.55;;;;-52
2022/04/18 10:27:27;;;;;;;5.24;4.77;;;;;;;17.82;43.28;100626.65;;;;-48
2022/04/18 10:30:27;;;;;;;4.29;2.33;;;;;;;17.82;43.21;100623.98;;;;-50
2022/04/18 10:33:27;;;;;;;2.65;1.85;;;;;;;17.83;43.17;100618.36;;;;-45
2022/04/18 10:36:27;;;;;;;3.21;2.09;;;;;;;17.83;43.28;100612.77;;;;-51
2022/04/18 10:39:27;;;;;;;4.79;3.98;;;;;;;17.84;43.36;100607.02;;;;-52
2022/04/18 10:42:27;;;;;;;3.81;3.44;;;;;;;17.84;43.34;100608.55;;;;-50
2022/04/18 10:45:27;;;;;;;4.13;1.92;;;;;;;17.85;43.30;100604.45;;;;-48
2022/04/18 10:48:27;;;;;;;2.63;2.27;;;;;;;17.85;43.33;100597.80;;;;-53
2022/04/18 10:51:27;;;;;;;3.37;3.05;;;;;;;17.86;43.46;100593.34;;;;-52
2022/04/18 11:29:01;;;;;;;133.62;123.17;;;;;;;17.88;43.15;100552.35;;;;-52
2022/04/18 11:32:01;;;;;;;105.85;98.08;;;;;;;17.87;43.15;100549.44;;;;-64
2022/04/18 11:35:31;;;;;;;27.14;25.22;;;;;;;17.87;43.12;100540.68;;;;-64
2022/04/18 11:38:31;;;;;;;38.75;36.07;;;;;;;17.87;43.03;100539.22;;;;-54
2022/04/18 11:41:01;;;;;;;78.49;72.85;;;;;;;17.85;43.14;100539.35;;;;-51
2022/04/18 11:44:01;;;;;;;108.70;100.75;;;;;;;17.85;43.09;100535.38;;;;-64
2022/04/18 11:47:01;;;;;;;14.76;13.73;;;;;;;17.85;43.11;100538.30;;;;-63
2022/04/18 11:50:01;;;;;;;12.25;11.44;;;;;;;17.84;43.09;100533.97;;;;-51
2022/04/18 11:53:01;;;;;;;15.93;14.87;;;;;;;17.83;43.10;100530.41;;;;-57
2022/04/18 11:56:01;;;;;;;16.85;15.80;;;;;;;17.82;43.12;100528.89;;;;-57
2022/04/18 12:08:02;;;;;;;18.56;17.39;;;;;;;17.80;43.17;100512.89;;;;-53
2022/04/18 12:11:01;;;;;;;24.91;23.32;;;;;;;17.80;43.18;100508.52;;;;-64
2022/04/18 12:14:01;;;;;;;35.85;33.41;;;;;;;17.81;43.21;100503.84;;;;-53
2022/04/18 12:17:01;;;;;;;88.99;82.28;;;;;;;17.79;43.21;100502.44;;;;-51
2022/04/18 12:20:01;;;;;;;69.59;64.64;;;;;;;17.80;43.21;100500.16;;;;-53
2022/04/18 12:23:31;;;;;;;18.93;17.70;;;;;;;17.80;43.17;100496.44;;;;-52
2022/04/18 12:26:02;;;;;;;95.25;88.31;;;;;;;17.80;43.20;100492.46;;;;-51
2022/04/18 12:29:31;;;;;;;8.58;7.95;;;;;;;17.80;43.26;100489.05;;;;-52
2022/04/18 12:32:01;;;;;;;9.63;9.01;;;;;;;17.80;43.19;100484.03;;;;-50
2022/04/18 12:35:31;;;;;;;10.31;9.61;;;;;;;17.80;43.27;100477.14;;;;-51
2022/04/18 12:38:31;;;;;;;15.74;14.74;;;;;;;17.80;43.21;100473.01;;;;-51
2022/04/18 12:41:01;;;;;;;106.13;98.27;;;;;;;17.81;43.19;100469.14;;;;-51
2022/04/18 12:44:01;;;;;;;6.16;5.74;;;;;;;17.80;43.28;100464.50;;;;-50
2022/04/18 12:47:32;;;;;;;6.34;5.93;;;;;;;17.81;43.22;100462.25;;;;-52
2022/04/18 12:50:01;;;;;;;10.61;9.93;;;;;;;17.81;43.26;100454.47;;;;-51
2022/04/18 12:53:01;;;;;;;27.12;25.35;;;;;;;17.81;43.24;100454.47;;;;-51
2022/04/18 12:56:01;;;;;;;76.27;70.89;;;;;;;17.81;43.21;100449.69;;;;-51
2022/04/18 12:59:01;;;;;;;18.59;17.44;;;;;;;17.80;43.20;100443.74;;;;-52
2022/04/18 13:02:01;;;;;;;81.83;75.97;;;;;;;17.81;43.26;100444.66;;;;-62
2022/04/18 13:05:01;;;;;;;9.65;9.01;;;;;;;17.81;43.30;100434.94;;;;-63
2022/04/18 13:08:01;;;;;;;11.59;10.83;;;;;;;17.81;43.25;100430.48;;;;-53
2022/04/18 13:11:01;;;;;;;59.67;55.51;;;;;;;17.80;43.33;100425.75;;;;-53
2022/04/18 13:14:03;;;;;;;5.59;4.22;;;;;;;17.81;43.37;100422.62;;;;-51
2022/04/18 13:17:01;;;;;;;3.59;3.26;;;;;;;17.83;43.32;100411.81;;;;-51
2022/04/18 13:20:04;;;;;;;3.91;2.55;;;;;;;17.83;43.36;100414.00;;;;-51
2022/04/18 13:23:31;;;;;;;11.89;7.91;;;;;;;17.85;43.48;100412.00;;;;-55
2022/04/18 13:26:01;;;;;;;100.89;93.21;;;;;;;17.86;43.56;100402.92;;;;-52
2022/04/18 13:29:01;;;;;;;5.99;5.53;;;;;;;17.88;43.62;100399.95;;;;-57
2022/04/18 13:32:01;;;;;;;4.71;3.94;;;;;;;17.87;43.68;100396.78;;;;-51
2022/04/18 13:35:31;;;;;;;6.02;3.87;;;;;;;17.91;43.63;100393.91;;;;-52
2022/04/18 13:38:01;;;;;;;8.67;6.16;;;;;;;17.91;43.66;100391.32;;;;-50
2022/04/18 13:41:31;;;;;;;48.94;45.41;;;;;;;17.92;43.63;100386.78;;;;-57
2022/04/18 13:44:31;;;;;;;10.54;9.66;;;;;;;17.92;43.63;100379.97;;;;-56
2022/04/18 13:47:31;;;;;;;61.70;57.36;;;;;;;17.92;43.69;100377.70;;;;-52
2022/04/18 13:50:31;;;;;;;10.49;9.83;;;;;;;17.93;43.66;100374.08;;;;-54
2022/04/18 13:53:31;;;;;;;8.61;8.00;;;;;;;17.94;43.71;100368.08;;;;-55
2022/04/18 13:56:32;;;;;;;17.41;16.29;;;;;;;17.95;43.75;100365.02;;;;-57
2022/04/18 13:59:31;;;;;;;15.57;14.54;;;;;;;17.96;43.87;100365.02;;;;-58
2022/04/18 14:02:31;;;;;;;12.66;11.79;;;;;;;17.97;43.79;100358.45;;;;-59
2022/04/18 14:05:31;;;;;;;50.92;47.38;;;;;;;17.97;43.95;100356.28;;;;-58
2022/04/18 14:08:01;;;;;;;8.03;7.49;;;;;;;17.98;44.03;100355.15;;;;-60
2022/04/18 14:11:01;;;;;;;10.16;9.45;;;;;;;18.00;43.93;100354.77;;;;-62
2022/04/18 14:23:01;;;;;;;13.45;12.33;;;;;;;18.01;43.90;100340.28;;;;-51
2022/04/18 14:26:31;;;;;;;54.30;50.46;;;;;;;18.01;43.83;100339.20;;;;-51
2022/04/18 14:29:31;;;;;;;33.62;31.31;;;;;;;18.00;43.80;100335.55;;;;-51
2022/04/18 14:32:31;;;;;;;78.78;72.85;;;;;;;17.98;43.79;100330.58;;;;-51
